GVNP

Praia International Airport

Praia, Cape Verde
TAF GVNP 221100Z 2212/2318 03018KT 9999 FEW015 PROB40 TEMPO 2300/2308 02008KT
Issued Valid From Valid To
Jan-22 @ 11:00 UTC
(6 hours ago)
Jan-22 @ 12:00 UTC
(5 hours ago)
Jan-23 @ 18:00 UTC
(-1 days ago)
Jan-22 @ 12:00 to Jan-23 @ 18:00
TAF GVNP 221100Z 2212/2318 03018KT 9999 FEW015
Wind Visibility Clouds
30° at 18 knots 10,000+ meters
  • Few at 1,500' AGL
Temporary  (Probability 40%) Jan-23 @ 00:00 to Jan-23 @ 08:00
PROB40 TEMPO 2300/2308 02008KT
Wind
20° at 8 knots
TAF GVNP 221100Z 2212/2318 03018KT 9999 FEW015 PROB40 TEMPO 2300/2308 02008KT
Issued Jan-22 @ 11:00 UTC
(6 hours ago)
Valid From Jan-22 @ 12:00 UTC
(5 hours ago)
Valid To Jan-23 @ 18:00 UTC
(-1 days ago)
Jan-22 @ 12:00 - Jan-23 @ 18:00
Wind Visibility
30° at 18 knots 10,000+ meters
Clouds
  • Few at 1,500' AGL
Probability 40% Temporary Jan-23 @ 00:00 - Jan-23 @ 08:00
Wind
20° at 8 knots